Time;durP1;ratioP1;P1;durP2;ratioP2;P2;SDS_P1;SDS_P2;PMS_P1;PMS_P2;Temp;Humidity;BMP_temperature;BMP_pressure;BME280_temperature;BME280_humidity;BME280_pressure;Samples;Min_cycle;Max_cycle;Signal;HPM_P1;HPM_P2
2022/01/29 00:01:40;;;;;;;10.27;6.83;;;0.60;99.90;;;;;;6311671;22;20635;-80
2022/01/29 00:04:06;;;;;;;10.50;7.07;;;0.60;99.90;;;;;;6312039;22;20144;-80
2022/01/29 00:06:31;;;;;;;8.37;6.77;;;0.60;99.90;;;;;;6311375;22;20477;-80
2022/01/29 00:08:58;;;;;;;12.63;7.93;;;0.60;99.90;;;;;;6312826;22;20144;-79
2022/01/29 00:11:29;;;;;;;9.57;8.00;;;0.70;99.90;;;;;;6314889;22;20167;-80
2022/01/29 00:13:54;;;;;;;12.43;8.80;;;0.70;99.90;;;;;;6300558;22;20188;-80
2022/01/29 00:16:20;;;;;;;12.30;8.70;;;0.70;99.90;;;;;;6252780;22;20152;-79
2022/01/29 00:18:46;;;;;;;11.37;7.67;;;0.80;99.90;;;;;;6280370;22;20172;-80
2022/01/29 00:21:12;;;;;;;10.73;7.37;;;0.60;99.90;;;;;;6280066;22;20161;-80
2022/01/29 00:23:37;;;;;;;11.07;7.17;;;0.50;99.90;;;;;;6280298;22;20155;-81
2022/01/29 00:26:05;;;;;;;9.40;8.10;;;0.50;99.90;;;;;;6252743;22;20148;-81
2022/01/29 00:28:33;;;;;;;7.60;6.80;;;0.50;99.90;;;;;;6280211;22;20148;-81
2022/01/29 00:30:59;;;;;;;10.87;7.47;;;0.40;99.90;;;;;;6253097;22;20225;-80
2022/01/29 00:33:25;;;;;;;9.57;7.50;;;0.40;99.90;;;;;;6279944;22;20168;-81
2022/01/29 00:35:50;;;;;;;9.87;7.67;;;0.40;99.90;;;;;;6253417;22;20152;-81
2022/01/29 00:38:16;;;;;;;8.80;7.20;;;0.20;99.90;;;;;;6280756;22;20176;-80
2022/01/29 00:40:44;;;;;;;9.90;7.57;;;0.10;99.90;;;;;;6253088;22;20159;-81
2022/01/29 00:43:09;;;;;;;10.93;7.57;;;0.10;99.90;;;;;;6279933;22;20171;-81
2022/01/29 00:45:35;;;;;;;10.03;8.07;;;0.10;99.90;;;;;;6280494;22;20140;-81
2022/01/29 00:48:01;;;;;;;9.97;8.00;;;0.30;99.90;;;;;;6279867;22;20155;-81
2022/01/29 00:50:26;;;;;;;13.80;7.23;;;0.10;99.90;;;;;;6252705;22;20163;-81
2022/01/29 00:52:52;;;;;;;8.70;7.80;;;0.00;99.90;;;;;;6280326;22;20505;-81
2022/01/29 00:55:18;;;;;;;9.60;7.37;;;0.00;99.90;;;;;;6252166;22;20219;-80
2022/01/29 00:57:44;;;;;;;9.40;7.73;;;-0.10;99.90;;;;;;6252718;22;20177;-81
2022/01/29 01:00:12;;;;;;;11.30;8.23;;;0.00;99.90;;;;;;6279578;22;20141;-80
2022/01/29 01:02:38;;;;;;;11.37;8.70;;;0.00;99.90;;;;;;6279858;22;20168;-81
2022/01/29 01:05:05;;;;;;;8.63;7.53;;;0.00;99.90;;;;;;6280238;22;20145;-81
2022/01/29 01:07:31;;;;;;;10.90;8.00;;;-0.10;99.90;;;;;;6279747;22;20171;-81
2022/01/29 01:09:57;;;;;;;14.40;8.47;;;-0.20;99.90;;;;;;6279880;22;20483;-81
2022/01/29 01:12:23;;;;;;;9.73;7.30;;;-0.20;99.90;;;;;;6280010;22;20167;-81
2022/01/29 01:14:49;;;;;;;12.53;8.27;;;-0.30;99.90;;;;;;6279741;22;20167;-80
2022/01/29 01:17:14;;;;;;;11.57;7.93;;;-0.20;99.90;;;;;;6279679;22;20172;-81
2022/01/29 01:19:40;;;;;;;11.70;8.73;;;-0.20;99.90;;;;;;6280077;22;20172;-80
2022/01/29 01:22:06;;;;;;;11.37;8.13;;;-0.20;99.90;;;;;;6279653;22;20196;-80
2022/01/29 01:24:31;;;;;;;9.13;7.70;;;-0.30;99.90;;;;;;6279405;22;20148;-80
2022/01/29 01:26:58;;;;;;;10.53;8.30;;;-0.20;99.90;;;;;;6279807;22;20149;-81
2022/01/29 01:29:24;;;;;;;13.03;8.03;;;-0.20;99.90;;;;;;6279516;22;20145;-80
2022/01/29 01:31:50;;;;;;;10.60;7.87;;;-0.10;99.90;;;;;;6281298;22;20160;-80
2022/01/29 01:34:19;;;;;;;11.03;7.87;;;-0.10;99.90;;;;;;6281420;22;20156;-80
2022/01/29 01:36:53;;;;;;;12.40;7.90;;;-0.20;99.90;;;;;;6280391;22;20149;-80
2022/01/29 01:39:23;;;;;;;10.77;7.77;;;-0.30;99.90;;;;;;6254157;22;20192;-80
2022/01/29 01:42:08;;;;;;;11.93;7.87;;;-0.30;99.90;;;;;;6281714;22;20504;-80
2022/01/29 01:44:46;;;;;;;11.47;8.27;;;-0.30;99.90;;;;;;6281908;22;20137;-80
2022/01/29 01:47:13;;;;;;;8.07;7.27;;;-0.30;99.90;;;;;;6281626;22;20153;-80
2022/01/29 01:49:39;;;;;;;10.20;7.53;;;-0.30;99.90;;;;;;6280870;22;20236;-80
2022/01/29 01:52:09;;;;;;;8.00;7.20;;;-0.30;99.90;;;;;;6281852;22;20175;-80
2022/01/29 01:54:35;;;;;;;9.10;6.97;;;-0.30;99.90;;;;;;6281434;22;20148;-80
2022/01/29 01:57:01;;;;;;;8.83;7.23;;;-0.30;99.90;;;;;;6281515;22;20151;-80
2022/01/29 01:59:27;;;;;;;9.83;6.27;;;-0.40;99.90;;;;;;6281350;22;20172;-80
2022/01/29 02:01:53;;;;;;;8.37;7.17;;;-0.40;99.90;;;;;;6281348;22;20167;-80
2022/01/29 02:04:19;;;;;;;9.63;7.27;;;-0.40;99.90;;;;;;6281265;22;20179;-80
2022/01/29 02:06:46;;;;;;;10.67;7.57;;;-0.40;99.90;;;;;;6281562;22;20145;-80
2022/01/29 02:09:14;;;;;;;6.43;5.87;;;-0.50;99.90;;;;;;6276766;22;20152;-79
2022/01/29 02:11:52;;;;;;;8.87;6.67;;;-0.50;99.90;;;;;;6279724;22;20217;-81
2022/01/29 02:14:20;;;;;;;11.03;7.00;;;-0.40;99.90;;;;;;6279403;22;20171;-81
2022/01/29 02:16:46;;;;;;;8.63;6.50;;;-0.40;99.90;;;;;;6278450;22;20232;-81
2022/01/29 02:19:11;;;;;;;7.70;6.80;;;-0.30;99.90;;;;;;6279436;22;20497;-80
2022/01/29 02:21:38;;;;;;;10.90;6.77;;;-0.30;99.90;;;;;;6252661;22;20175;-80
2022/01/29 02:24:04;;;;;;;9.10;6.63;;;-0.20;99.90;;;;;;6279851;22;20145;-79
2022/01/29 02:26:30;;;;;;;8.27;7.00;;;-0.10;99.90;;;;;;6279404;22;20141;-80
2022/01/29 02:28:56;;;;;;;8.87;6.50;;;-0.10;99.90;;;;;;6279722;22;20153;-79
2022/01/29 02:31:21;;;;;;;12.00;6.77;;;-0.10;99.90;;;;;;6252111;22;20190;-80
2022/01/29 02:33:47;;;;;;;8.30;6.70;;;0.00;99.90;;;;;;6279562;22;20153;-81
2022/01/29 02:36:13;;;;;;;10.47;6.27;;;0.00;99.90;;;;;;6279305;22;20145;-81
2022/01/29 02:38:39;;;;;;;10.40;6.07;;;0.00;99.90;;;;;;6278794;22;20184;-79
2022/01/29 02:41:06;;;;;;;6.90;5.77;;;-0.10;99.90;;;;;;6279610;22;20172;-81
2022/01/29 02:43:37;;;;;;;12.80;7.63;;;-0.10;99.90;;;;;;6279859;22;20148;-80
2022/01/29 02:46:21;;;;;;;6.83;6.00;;;-0.10;99.90;;;;;;6279755;22;20136;-79
2022/01/29 02:48:49;;;;;;;8.77;6.83;;;-0.10;99.90;;;;;;6279927;22;20145;-80
2022/01/29 02:51:16;;;;;;;10.03;6.10;;;-0.20;99.90;;;;;;6253304;22;20172;-80
2022/01/29 02:53:41;;;;;;;7.13;6.40;;;-0.20;99.90;;;;;;6280491;22;20262;-80
2022/01/29 02:56:08;;;;;;;7.43;6.37;;;-0.20;99.90;;;;;;6277995;22;20145;-80
2022/01/29 02:58:34;;;;;;;7.97;6.57;;;-0.20;99.90;;;;;;6252541;22;20185;-80
2022/01/29 03:01:09;;;;;;;7.37;5.80;;;-0.10;99.90;;;;;;6251209;22;20196;-80
2022/01/29 03:03:35;;;;;;;8.27;6.67;;;-0.10;99.90;;;;;;6278877;22;20211;-81
2022/01/29 03:06:08;;;;;;;6.80;6.20;;;-0.10;99.90;;;;;;6253209;22;20151;-81
2022/01/29 03:08:34;;;;;;;7.73;6.10;;;-0.20;99.90;;;;;;6280933;22;20141;-81
2022/01/29 03:11:00;;;;;;;8.37;5.70;;;-0.10;99.90;;;;;;6279132;22;20265;-81
2022/01/29 03:13:25;;;;;;;9.73;5.93;;;-0.10;99.90;;;;;;6252716;22;20190;-80
2022/01/29 03:15:51;;;;;;;6.57;5.90;;;-0.10;99.90;;;;;;6281185;22;20141;-81
2022/01/29 03:18:16;;;;;;;7.73;5.90;;;-0.10;99.90;;;;;;6281231;22;20178;-81
2022/01/29 03:20:42;;;;;;;7.63;5.97;;;-0.10;99.90;;;;;;6281367;22;20148;-81
2022/01/29 03:23:08;;;;;;;6.57;5.90;;;-0.10;99.90;;;;;;6253536;22;20144;-81
2022/01/29 03:25:34;;;;;;;7.70;5.60;;;-0.10;99.90;;;;;;6280909;22;20152;-81
2022/01/29 03:28:00;;;;;;;10.17;6.30;;;-0.20;99.90;;;;;;6281182;22;20210;-81
2022/01/29 03:30:25;;;;;;;6.90;5.97;;;-0.10;99.90;;;;;;6280930;22;20590;-81
2022/01/29 03:32:51;;;;;;;8.70;6.03;;;-0.10;99.90;;;;;;6280787;22;20195;-80
2022/01/29 03:35:17;;;;;;;7.33;6.60;;;0.00;99.90;;;;;;6291795;22;20593;-81
2022/01/29 03:37:42;;;;;;;8.40;6.43;;;0.10;99.90;;;;;;6265533;22;20180;-81
2022/01/29 03:40:09;;;;;;;8.70;6.40;;;0.00;99.90;;;;;;6259245;22;20164;-81
2022/01/29 03:42:43;;;;;;;7.70;6.03;;;0.10;99.90;;;;;;6255219;22;20175;-82
2022/01/29 03:45:10;;;;;;;7.03;6.33;;;0.10;99.90;;;;;;6281729;22;20129;-81
2022/01/29 03:47:35;;;;;;;7.90;6.70;;;0.10;99.90;;;;;;6254690;22;20496;-81
2022/01/29 03:50:02;;;;;;;9.87;6.70;;;0.50;99.90;;;;;;6282405;22;20141;-81
2022/01/29 03:52:27;;;;;;;7.07;6.37;;;0.10;99.90;;;;;;6255052;22;20679;-81
2022/01/29 03:54:53;;;;;;;10.83;6.80;;;0.20;99.90;;;;;;6255059;22;20152;-81
2022/01/29 03:57:19;;;;;;;10.10;7.73;;;0.20;99.90;;;;;;6281601;22;20141;-81
2022/01/29 03:59:44;;;;;;;11.43;8.13;;;0.20;99.90;;;;;;6254044;22;20184;-81
2022/01/29 04:02:10;;;;;;;12.03;8.93;;;0.30;99.90;;;;;;6281004;22;20501;-81
2022/01/29 04:04:35;;;;;;;12.03;9.33;;;0.30;99.90;;;;;;6281209;22;20144;-81
2022/01/29 04:07:08;;;;;;;12.07;9.07;;;0.40;99.90;;;;;;6254346;22;20156;-81
2022/01/29 04:09:34;;;;;;;11.37;9.30;;;0.40;99.90;;;;;;6281813;22;20157;-81
2022/01/29 04:12:00;;;;;;;13.17;10.00;;;0.50;99.90;;;;;;6282106;22;20198;-81
2022/01/29 04:14:32;;;;;;;14.10;10.93;;;0.40;99.90;;;;;;6280752;22;20184;-81
2022/01/29 04:16:57;;;;;;;15.10;11.97;;;0.50;99.90;;;;;;6281818;22;20153;-81
2022/01/29 04:19:23;;;;;;;23.30;16.10;;;0.50;99.90;;;;;;6254189;22;20644;-81
2022/01/29 04:21:48;;;;;;;21.37;15.47;;;0.60;99.90;;;;;;6281111;22;20164;-81
2022/01/29 04:24:14;;;;;;;26.13;15.97;;;0.80;99.90;;;;;;6254174;22;20148;-81
2022/01/29 04:26:40;;;;;;;24.33;15.23;;;0.90;99.90;;;;;;6281179;22;20179;-81
2022/01/29 04:29:08;;;;;;;24.43;15.80;;;0.80;99.90;;;;;;6281497;22;20160;-81
2022/01/29 04:34:19;;;;;;;27.93;17.53;;;0.90;99.90;;;;;;6291773;22;20140;-81
2022/01/29 04:36:44;;;;;;;30.17;18.90;;;0.90;99.90;;;;;;6253137;22;20214;-81
2022/01/29 04:39:10;;;;;;;31.57;20.17;;;0.90;99.90;;;;;;6280630;22;20175;-81
2022/01/29 04:41:36;;;;;;;34.93;20.63;;;1.00;99.90;;;;;;6280676;22;20179;-81
2022/01/29 04:44:02;;;;;;;43.00;24.37;;;0.90;99.90;;;;;;6280940;22;20141;-81
2022/01/29 04:46:28;;;;;;;42.13;25.27;;;1.00;99.90;;;;;;6280716;22;20188;-81
2022/01/29 04:48:54;;;;;;;46.83;25.63;;;0.90;99.90;;;;;;6278221;22;20149;-81
2022/01/29 04:51:20;;;;;;;43.03;24.53;;;0.90;99.90;;;;;;6278286;22;20175;-80
2022/01/29 04:53:46;;;;;;;42.77;24.97;;;1.30;99.90;;;;;;6277498;22;20158;-80
2022/01/29 04:56:12;;;;;;;34.00;20.87;;;1.00;99.90;;;;;;6279275;22;20148;-81
2022/01/29 04:58:37;;;;;;;35.17;22.07;;;0.90;99.90;;;;;;6279861;22;20171;-81
2022/01/29 05:01:04;;;;;;;36.23;21.37;;;0.90;99.90;;;;;;6278160;22;20164;-82
2022/01/29 05:03:30;;;;;;;37.23;21.97;;;0.90;99.90;;;;;;6279624;22;20147;-82
2022/01/29 05:05:56;;;;;;;36.20;21.83;;;0.90;99.90;;;;;;6279081;22;20509;-81
2022/01/29 05:08:21;;;;;;;36.77;21.47;;;1.10;99.90;;;;;;6251294;22;20222;-81
2022/01/29 05:10:47;;;;;;;33.27;21.27;;;1.00;99.90;;;;;;6251382;22;20150;-81
2022/01/29 05:13:17;;;;;;;37.27;21.90;;;1.00;99.90;;;;;;6253606;22;20217;-81
2022/01/29 05:29:09;;;;;;;36.07;21.67;;;1.00;99.90;;;;;;6280561;22;20228;-80
2022/01/29 05:31:36;;;;;;;33.30;20.37;;;1.00;99.90;;;;;;6280585;22;20164;-79
2022/01/29 05:34:02;;;;;;;40.13;21.10;;;1.00;99.90;;;;;;6280378;22;20144;-80
2022/01/29 05:36:28;;;;;;;37.40;21.47;;;1.10;99.90;;;;;;6281207;22;20180;-80
2022/01/29 05:38:53;;;;;;;35.43;21.67;;;1.10;99.90;;;;;;6253167;22;20181;-81
2022/01/29 05:41:19;;;;;;;33.57;20.13;;;1.10;99.90;;;;;;6253414;22;20179;-80
2022/01/29 05:43:47;;;;;;;41.10;21.57;;;1.10;99.90;;;;;;6252961;22;20156;-80
2022/01/29 05:46:14;;;;;;;30.60;19.47;;;1.20;99.90;;;;;;6279886;22;20172;-80
2022/01/29 05:48:41;;;;;;;37.13;20.57;;;1.20;99.90;;;;;;6280289;22;20544;-81
2022/01/29 05:51:07;;;;;;;35.93;20.93;;;1.20;99.90;;;;;;6279546;22;20200;-81
2022/01/29 05:53:33;;;;;;;32.63;20.60;;;1.10;99.90;;;;;;6252848;22;20149;-81
2022/01/29 05:55:59;;;;;;;32.30;21.37;;;1.20;99.90;;;;;;6252348;22;20232;-81
2022/01/29 05:58:25;;;;;;;34.07;19.83;;;1.20;99.90;;;;;;6279464;22;20640;-81
2022/01/29 06:00:50;;;;;;;32.13;19.90;;;1.20;99.90;;;;;;6252672;22;20603;-80
2022/01/29 06:03:16;;;;;;;33.13;20.13;;;1.20;99.90;;;;;;6252857;22;20236;-81
2022/01/29 06:05:42;;;;;;;34.50;20.93;;;1.30;99.90;;;;;;6253325;22;20673;-80
2022/01/29 06:08:07;;;;;;;34.53;20.20;;;1.40;99.90;;;;;;6281692;22;20156;-80
2022/01/29 06:10:33;;;;;;;38.70;21.43;;;1.40;99.90;;;;;;6281185;22;20160;-80
2022/01/29 06:13:05;;;;;;;31.60;21.03;;;1.30;99.90;;;;;;6280715;22;20166;-80
2022/01/29 06:15:39;;;;;;;43.10;21.57;;;1.40;99.90;;;;;;6281530;22;20167;-80
2022/01/29 06:18:05;;;;;;;39.37;22.47;;;1.30;99.90;;;;;;6281136;22;20164;-80
2022/01/29 06:20:31;;;;;;;37.43;22.50;;;1.30;99.90;;;;;;6280838;22;20141;-80
2022/01/29 06:22:56;;;;;;;39.90;22.07;;;1.30;99.90;;;;;;6280476;22;20164;-80
2022/01/29 06:25:22;;;;;;;38.73;22.83;;;1.20;99.90;;;;;;6281194;22;20140;-81
2022/01/29 06:27:48;;;;;;;37.50;21.80;;;0.70;99.90;;;;;;6280663;22;20152;-80
2022/01/29 06:30:15;;;;;;;39.80;22.47;;;1.30;99.90;;;;;;6281340;22;20202;-80
2022/01/29 06:32:41;;;;;;;36.40;20.73;;;1.40;99.90;;;;;;6281160;22;20172;-81
2022/01/29 06:35:07;;;;;;;35.33;21.37;;;1.40;99.90;;;;;;6281193;22;20157;-80
2022/01/29 06:37:33;;;;;;;33.90;20.70;;;1.40;99.90;;;;;;6280855;22;20198;-81
2022/01/29 06:39:59;;;;;;;39.07;22.27;;;1.40;99.90;;;;;;6280343;22;20145;-80
2022/01/29 06:42:24;;;;;;;36.60;21.13;;;1.20;99.90;;;;;;6253249;22;20168;-81
2022/01/29 06:44:50;;;;;;;36.53;21.50;;;2.00;99.90;;;;;;6280373;22;20141;-80
2022/01/29 06:47:16;;;;;;;35.67;21.00;;;1.40;99.90;;;;;;6280969;22;20232;-80
2022/01/29 06:49:41;;;;;;;37.00;21.03;;;1.10;99.90;;;;;;6253929;22;20160;-81
2022/01/29 06:52:07;;;;;;;35.90;20.33;;;1.40;99.90;;;;;;6280867;22;20174;-81
2022/01/29 06:54:32;;;;;;;35.47;21.30;;;1.40;99.90;;;;;;6280850;22;20150;-81
2022/01/29 06:56:58;;;;;;;32.30;20.90;;;1.40;99.90;;;;;;6281249;22;20171;-80
2022/01/29 06:59:24;;;;;;;35.90;20.20;;;1.50;99.90;;;;;;6280834;22;20509;-80
2022/01/29 07:01:49;;;;;;;36.97;20.97;;;1.50;99.90;;;;;;6280670;22;20211;-80
2022/01/29 07:04:15;;;;;;;30.50;20.17;;;1.60;99.90;;;;;;6280246;22;20215;-80
2022/01/29 07:06:41;;;;;;;32.07;20.60;;;1.70;99.90;;;;;;6280263;22;20243;-80
2022/01/29 07:09:06;;;;;;;32.17;20.03;;;1.60;99.90;;;;;;6280669;22;20470;-80
2022/01/29 07:11:32;;;;;;;33.70;20.30;;;1.60;99.90;;;;;;6253143;22;20632;-80
2022/01/29 07:14:04;;;;;;;32.17;20.10;;;1.60;99.90;;;;;;6280295;22;20215;-81
2022/01/29 07:16:31;;;;;;;34.33;19.50;;;1.60;99.90;;;;;;6280278;22;20133;-80
2022/01/29 07:18:57;;;;;;;34.40;21.30;;;1.60;99.90;;;;;;6280754;22;20172;-81
2022/01/29 07:21:23;;;;;;;33.77;20.50;;;1.50;99.90;;;;;;6280252;22;20206;-80
2022/01/29 07:23:49;;;;;;;34.77;20.37;;;1.60;99.90;;;;;;6252976;22;20151;-80
2022/01/29 07:26:14;;;;;;;34.20;20.87;;;1.60;99.90;;;;;;6280190;22;20489;-80
2022/01/29 07:28:40;;;;;;;37.53;21.73;;;1.60;99.90;;;;;;6252796;22;20152;-81
2022/01/29 07:31:06;;;;;;;33.13;20.30;;;2.40;99.90;;;;;;6280174;22;20179;-80
2022/01/29 07:33:32;;;;;;;33.40;20.97;;;1.50;99.90;;;;;;6281168;22;20152;-80
2022/01/29 07:35:58;;;;;;;32.27;20.50;;;1.50;99.90;;;;;;6279456;22;20547;-80
2022/01/29 07:38:24;;;;;;;31.33;19.87;;;1.50;99.90;;;;;;6279849;22;20179;-80
2022/01/29 07:40:49;;;;;;;32.77;20.27;;;1.50;99.90;;;;;;6280222;22;20483;-80
2022/01/29 07:43:15;;;;;;;35.83;20.13;;;1.60;99.90;;;;;;6252908;22;20498;-80
2022/01/29 07:45:41;;;;;;;33.00;20.77;;;1.60;99.90;;;;;;6278615;22;20220;-81
2022/01/29 07:48:06;;;;;;;30.00;19.17;;;1.60;99.90;;;;;;6280155;22;20249;-80
2022/01/29 07:50:32;;;;;;;28.20;19.13;;;2.00;99.90;;;;;;6282104;22;20150;-80
2022/01/29 07:52:59;;;;;;;35.50;18.77;;;1.70;99.90;;;;;;6279466;22;20207;-80
2022/01/29 07:55:26;;;;;;;29.83;18.30;;;1.70;99.90;;;;;;6252878;22;20153;-80
2022/01/29 07:57:54;;;;;;;29.13;18.70;;;1.80;99.90;;;;;;6252464;22;20199;-80
2022/01/29 08:00:20;;;;;;;28.47;18.47;;;1.80;99.90;;;;;;6252552;22;20152;-80
2022/01/29 08:02:45;;;;;;;29.03;18.20;;;1.70;99.90;;;;;;6279944;22;20176;-80
2022/01/29 08:05:11;;;;;;;31.03;18.80;;;1.80;99.90;;;;;;6251028;22;20152;-80
2022/01/29 08:07:38;;;;;;;29.23;17.80;;;1.80;99.90;;;;;;6278053;22;20220;-81
2022/01/29 08:10:04;;;;;;;26.00;17.33;;;1.80;99.90;;;;;;6278584;22;20142;-80
2022/01/29 08:12:30;;;;;;;31.53;19.40;;;1.80;99.90;;;;;;6279533;22;20497;-80
2022/01/29 08:14:56;;;;;;;31.23;18.77;;;1.80;99.90;;;;;;6279137;22;20164;-80
2022/01/29 08:17:22;;;;;;;30.03;18.57;;;1.80;99.90;;;;;;6278440;22;20619;-80
2022/01/29 08:19:49;;;;;;;26.40;17.57;;;2.40;99.90;;;;;;6279287;22;20176;-80
2022/01/29 08:22:15;;;;;;;33.50;18.87;;;1.90;99.90;;;;;;6252221;22;20515;-81
2022/01/29 08:24:41;;;;;;;29.10;17.43;;;1.90;99.90;;;;;;6278918;22;20617;-80
2022/01/29 08:27:07;;;;;;;30.80;17.63;;;2.00;99.90;;;;;;6280596;22;20202;-80
2022/01/29 08:29:32;;;;;;;33.17;19.50;;;2.10;99.90;;;;;;6280592;22;20582;-80
2022/01/29 08:31:58;;;;;;;26.03;17.33;;;1.90;99.90;;;;;;6279502;22;20617;-79
2022/01/29 08:34:24;;;;;;;29.87;18.07;;;2.00;99.90;;;;;;6279326;22;20601;-79
2022/01/29 08:36:50;;;;;;;31.40;18.50;;;2.00;99.90;;;;;;6279542;22;20144;-79
2022/01/29 08:39:16;;;;;;;27.30;18.10;;;2.00;99.90;;;;;;6250731;22;20226;-79
2022/01/29 08:41:42;;;;;;;29.57;18.10;;;2.00;99.90;;;;;;6251950;22;20202;-80
2022/01/29 08:44:08;;;;;;;26.33;18.17;;;2.00;99.90;;;;;;6283184;22;20148;-78
2022/01/29 08:46:33;;;;;;;26.37;17.63;;;2.10;99.90;;;;;;6289906;22;20653;-78
2022/01/29 08:48:59;;;;;;;28.47;17.40;;;2.10;99.90;;;;;;6288547;22;20148;-79
2022/01/29 08:51:25;;;;;;;23.73;15.60;;;2.20;99.90;;;;;;6280033;22;20500;-81
2022/01/29 08:53:51;;;;;;;25.93;16.87;;;2.10;99.90;;;;;;6281055;22;20156;-80
2022/01/29 08:56:16;;;;;;;23.97;16.93;;;2.10;99.90;;;;;;6279777;22;20149;-81
2022/01/29 08:58:43;;;;;;;25.00;16.37;;;3.00;99.90;;;;;;6279865;22;20234;-81
2022/01/29 09:01:10;;;;;;;28.10;17.60;;;2.20;99.90;;;;;;6279707;22;20167;-80
2022/01/29 09:03:36;;;;;;;28.73;17.83;;;2.20;99.90;;;;;;6279246;22;20141;-81
2022/01/29 09:06:03;;;;;;;30.43;17.00;;;1.80;99.90;;;;;;6252170;22;20148;-80
2022/01/29 09:08:30;;;;;;;28.13;16.77;;;2.20;99.90;;;;;;6252013;22;20169;-80
2022/01/29 09:10:57;;;;;;;27.07;16.10;;;2.20;99.90;;;;;;6278936;22;20149;-80
2022/01/29 09:13:24;;;;;;;21.27;15.13;;;2.20;99.90;;;;;;6279426;22;20148;-81
2022/01/29 09:15:50;;;;;;;24.07;16.00;;;2.20;99.90;;;;;;6279114;22;20152;-81
2022/01/29 09:18:15;;;;;;;20.90;14.77;;;2.30;99.90;;;;;;6252010;22;20176;-80
2022/01/29 09:20:41;;;;;;;18.97;13.20;;;2.30;99.90;;;;;;6279321;22;20229;-80
2022/01/29 09:23:10;;;;;;;22.53;14.50;;;2.40;99.90;;;;;;6278232;22;20257;-81
2022/01/29 09:25:37;;;;;;;22.23;14.70;;;2.50;99.90;;;;;;6279565;22;20559;-81
2022/01/29 09:28:03;;;;;;;21.67;14.80;;;2.50;99.90;;;;;;6278501;22;20174;-80
2022/01/29 09:30:30;;;;;;;23.03;14.43;;;2.60;99.90;;;;;;6251909;22;20667;-82
2022/01/29 09:32:55;;;;;;;20.37;13.60;;;2.60;99.90;;;;;;6280825;22;20302;-81
2022/01/29 09:35:21;;;;;;;17.63;11.50;;;2.70;99.90;;;;;;6252999;22;20153;-81
2022/01/29 09:37:47;;;;;;;19.00;13.60;;;2.70;99.90;;;;;;6280665;22;20212;-80
2022/01/29 09:40:13;;;;;;;18.33;13.20;;;2.60;99.90;;;;;;6280383;22;20149;-80
2022/01/29 09:42:40;;;;;;;21.30;14.17;;;2.60;99.90;;;;;;6253315;22;20202;-81
2022/01/29 09:45:08;;;;;;;21.63;14.67;;;2.60;99.90;;;;;;6280224;22;20591;-80
2022/01/29 09:47:35;;;;;;;22.83;14.67;;;2.60;99.90;;;;;;6252784;22;20721;-80
2022/01/29 09:50:01;;;;;;;23.70;14.43;;;2.70;99.90;;;;;;6282834;22;20157;-83
2022/01/29 09:52:26;;;;;;;18.43;13.33;;;2.00;99.90;;;;;;6284585;22;20165;-80
2022/01/29 09:54:52;;;;;;;17.83;12.57;;;3.00;99.90;;;;;;6284382;22;20145;-81
2022/01/29 09:57:17;;;;;;;18.57;12.83;;;3.10;99.90;;;;;;6284520;22;20513;-82
2022/01/29 09:59:43;;;;;;;17.67;11.27;;;3.10;99.90;;;;;;6282537;22;20190;-79
2022/01/29 10:02:18;;;;;;;15.17;12.50;;;3.20;99.90;;;;;;6249054;22;20629;-80
2022/01/29 10:04:51;;;;;;;17.60;11.57;;;4.10;99.90;;;;;;6280544;22;20194;-79
2022/01/29 10:07:20;;;;;;;16.30;11.63;;;3.10;99.90;;;;;;6279766;22;20161;-78
2022/01/29 10:09:46;;;;;;;14.77;10.60;;;5.00;99.90;;;;;;6280230;22;20150;-79
2022/01/29 10:12:20;;;;;;;14.60;10.87;;;3.70;99.90;;;;;;6280510;22;20172;-80
2022/01/29 10:15:01;;;;;;;14.87;10.53;;;3.80;99.90;;;;;;6279909;22;20168;-80
2022/01/29 10:17:46;;;;;;;14.43;10.33;;;;;;;;;;6284416;22;20156;-79
2022/01/29 10:20:14;;;;;;;12.47;10.57;;;3.90;99.90;;;;;;6280652;22;20155;-81
2022/01/29 10:22:43;;;;;;;16.13;10.00;;;4.00;99.90;;;;;;6252572;22;20256;-80
2022/01/29 10:25:21;;;;;;;15.37;7.63;;;4.10;99.90;;;;;;6280239;22;20150;-80
2022/01/29 10:28:17;;;;;;;14.63;9.67;;;4.00;99.90;;;;;;6279993;22;20215;-80
2022/01/29 10:30:48;;;;;;;11.20;9.13;;;3.90;99.90;;;;;;6247857;22;20163;-79
2022/01/29 10:33:23;;;;;;;10.37;8.70;;;3.90;99.90;;;;;;6279745;22;20504;-80
2022/01/29 10:35:51;;;;;;;12.20;8.70;;;3.80;99.90;;;;;;6279949;22;20144;-79
2022/01/29 10:38:23;;;;;;;9.10;8.03;;;3.80;99.90;;;;;;6279375;22;20311;-80
2022/01/29 10:41:10;;;;;;;12.00;8.33;;;3.80;99.90;;;;;;6252287;22;20597;-81
2022/01/29 10:43:52;;;;;;;9.87;6.83;;;3.80;99.90;;;;;;6252512;22;20236;-80
2022/01/29 10:46:30;;;;;;;11.37;7.83;;;4.00;99.90;;;;;;6279642;22;20133;-80
2022/01/29 10:48:57;;;;;;;8.63;7.30;;;4.20;99.90;;;;;;6279808;22;20767;-79
2022/01/29 10:51:22;;;;;;;8.03;7.13;;;4.30;99.90;;;;;;6279871;22;20502;-79
2022/01/29 10:53:48;;;;;;;7.10;6.40;;;4.40;99.90;;;;;;6278455;22;20180;-80
2022/01/29 10:56:14;;;;;;;7.37;5.60;;;4.50;99.90;;;;;;6279383;22;20242;-81
2022/01/29 10:58:41;;;;;;;6.13;4.23;;;4.60;99.90;;;;;;6279517;22;20251;-79
2022/01/29 11:01:33;;;;;;;7.47;5.10;;;4.70;99.90;;;;;;6252354;22;20170;-79
2022/01/29 11:03:59;;;;;;;5.10;3.57;;;4.80;99.90;;;;;;6246887;22;20235;-79
2022/01/29 11:06:33;;;;;;;3.33;2.30;;;4.90;99.90;;;;;;6252823;22;20657;-79
2022/01/29 11:08:59;;;;;;;3.90;3.00;;;5.00;99.90;;;;;;6252602;22;20532;-79
2022/01/29 11:11:25;;;;;;;2.90;2.70;;;5.20;99.90;;;;;;6280024;22;20193;-79
2022/01/29 11:13:51;;;;;;;8.47;3.37;;;5.30;99.90;;;;;;6261573;22;20171;-79
2022/01/29 11:16:17;;;;;;;4.90;2.97;;;5.50;99.90;;;;;;6282859;22;20191;-80
2022/01/29 11:18:43;;;;;;;2.40;2.20;;;5.50;99.90;;;;;;6310771;22;20176;-79
2022/01/29 11:21:09;;;;;;;2.50;2.30;;;5.90;99.90;;;;;;6284050;22;20221;-80
2022/01/29 11:23:35;;;;;;;5.00;2.30;;;5.40;99.90;;;;;;6282926;22;20219;-79
2022/01/29 11:26:02;;;;;;;3.47;2.77;;;5.50;99.90;;;;;;6283159;22;20153;-80
2022/01/29 11:28:29;;;;;;;3.17;2.87;;;5.60;99.90;;;;;;6309838;22;20146;-80
2022/01/29 11:31:16;;;;;;;4.30;3.60;;;5.80;99.90;;;;;;6309832;22;20201;-81
2022/01/29 11:33:59;;;;;;;3.87;2.30;;;6.10;99.90;;;;;;6310302;22;20145;-80
2022/01/29 11:36:47;;;;;;;4.53;2.73;;;6.10;99.90;;;;;;6310103;22;20163;-80
2022/01/29 11:39:28;;;;;;;3.50;2.40;;;6.20;99.90;;;;;;6309327;22;20165;-81
2022/01/29 11:42:13;;;;;;;4.73;2.03;;;6.20;99.90;;;;;;6309826;22;20220;-82
2022/01/29 11:44:43;;;;;;;2.53;1.97;;;6.30;99.90;;;;;;6281849;22;20212;-82
2022/01/29 11:47:25;;;;;;;1.83;1.60;;;6.20;99.90;;;;;;6309973;22;20143;-81
2022/01/29 11:50:11;;;;;;;2.53;2.07;;;5.90;99.90;;;;;;6307683;22;20626;-81
2022/01/29 11:52:56;;;;;;;3.70;2.00;;;5.80;99.90;;;;;;6204957;22;20224;-80
2022/01/29 11:55:44;;;;;;;4.90;2.10;;;5.80;99.90;;;;;;6309064;22;20181;-80
2022/01/29 11:58:26;;;;;;;3.00;2.60;;;5.90;99.90;;;;;;6308902;22;20160;-81
2022/01/29 12:00:59;;;;;;;2.53;1.87;;;6.00;99.90;;;;;;6309176;22;20166;-81
2022/01/29 12:03:35;;;;;;;2.50;1.93;;;5.90;99.90;;;;;;6309242;22;20669;-81
2022/01/29 12:06:33;;;;;;;3.37;2.30;;;5.80;99.90;;;;;;6281877;22;20149;-81
2022/01/29 12:09:25;;;;;;;4.63;2.33;;;5.80;99.90;;;;;;6260869;22;20154;-82
2022/01/29 12:12:17;;;;;;;3.47;2.60;;;5.90;99.90;;;;;;6289833;22;20208;-82
2022/01/29 12:14:45;;;;;;;2.30;2.10;;;5.90;99.90;;;;;;6288135;22;20162;-81
2022/01/29 12:17:11;;;;;;;2.73;1.80;;;6.10;99.90;;;;;;6277584;22;20150;-81
2022/01/29 12:19:42;;;;;;;3.53;2.20;;;5.70;99.90;;;;;;6277991;22;20719;-81
2022/01/29 12:22:12;;;;;;;2.80;2.20;;;5.70;99.90;;;;;;6278240;22;20929;-80
2022/01/29 12:24:39;;;;;;;2.90;2.17;;;5.80;99.90;;;;;;6278108;22;20141;-79
2022/01/29 12:27:06;;;;;;;2.67;1.87;;;5.80;99.90;;;;;;6277906;22;20144;-80
2022/01/29 12:29:32;;;;;;;3.80;2.20;;;5.70;99.90;;;;;;6277872;22;20149;-80
2022/01/29 12:31:58;;;;;;;2.73;2.30;;;5.60;99.90;;;;;;6250847;22;20256;-80
2022/01/29 12:34:25;;;;;;;2.87;1.70;;;5.70;99.90;;;;;;6277983;22;20154;-79
2022/01/29 12:36:51;;;;;;;2.83;2.47;;;5.80;99.90;;;;;;6277777;22;20149;-80
2022/01/29 12:39:22;;;;;;;2.30;2.10;;;5.80;99.90;;;;;;6277769;22;20570;-80
2022/01/29 12:42:27;;;;;;;2.80;1.90;;;6.00;99.90;;;;;;6277422;22;20505;-80
2022/01/29 12:44:58;;;;;;;3.70;2.10;;;6.00;99.90;;;;;;6277870;22;21005;-79
2022/01/29 12:47:26;;;;;;;2.27;2.07;;;6.20;99.90;;;;;;6250763;22;20160;-81
2022/01/29 12:49:52;;;;;;;2.80;2.00;;;6.10;99.90;;;;;;6279065;22;20156;-80
2022/01/29 12:52:18;;;;;;;3.70;2.37;;;6.10;99.90;;;;;;6277980;22;20193;-80
2022/01/29 12:54:55;;;;;;;2.77;2.30;;;6.30;99.90;;;;;;6277454;22;20198;-81
2022/01/29 12:57:21;;;;;;;2.23;1.73;;;6.40;99.90;;;;;;6278557;22;20137;-80
2022/01/29 12:59:48;;;;;;;4.73;2.10;;;6.30;99.90;;;;;;6250609;22;20233;-81
2022/01/29 13:02:14;;;;;;;2.43;1.90;;;6.30;99.90;;;;;;6278497;22;20240;-81
2022/01/29 13:04:44;;;;;;;1.70;1.60;;;6.30;99.90;;;;;;6251279;22;20151;-80